Columbus Junction, IA

12:59 AM CDT on September 18, 2014 (GMT -0500)
Purdy Hill (Ken) | Change Station
CLOSE
Current Station
Personal Weather Station
Location: Columbus Junction, IA
Elevation: 656 ft
Nearby Weather Stations

Elev 656 ft 41.28 °N, 91.38 °W | Updated 12 minutes ago

Partly Cloudy
Partly Cloudy
48.6 °F
Feels Like 49 °F
N
0.0
Wind Variable Wind from East

Today
High -- | Low -- °F
--% Chance of Precip.
Yesterday
High -- | Low -- °F
Precip. -- in
6:48 AM 7:09 PM
Waning Crescent, 30% visible
Pressure 30.03 in
Visibility 0.2 miles
Clouds
Windchill 49 °F
Dew Point 48 °F
Humidity 99%
Rainfall 0.00 in
Snow Depth Not available.
UV Not available.
Pollen 5.30 out of 12
Air Quality Not available.
Flu Activity Not available.
METAR KMUT 180535Z AUTO 00000KT M1/4SM FG VV000 10/10 A3003 RMK AO2

More Conditions Fewer Conditions

Pressure 30.03 in
Visibility 0.2 miles
Clouds
Windchill 49 °F
Dew Point 48 °F
Humidity 99%
Rainfall 0.00 in
Snow Depth Not available.
UV Not available.
Pollen 5.30 out of 12
Air Quality Not available.
Flu Activity Not available.
METAR KMUT 180535Z AUTO 00000KT M1/4SM FG VV000 10/10 A3003 RMK AO2

More Conditions Fewer Conditions

10-Day Weather Forecast

Almanac

Astronomy

Sep. 18, 2014 Rise Set
Actual Time 6:48 AM CDT 7:09 PM CDT
Civil Twilight 6:21 AM CDT 7:37 PM CDT
Nautical Twilight 5:48 AM CDT 8:09 PM CDT
Astronomical Twilight 5:15 AM CDT 8:42 PM CDT
Moon 1:38 AM CDT 4:03 PM CDT
Length of Visible Light 13h 15m
Length of Day
12h 20m
Tomorrow will be 2m 44s shorter.
Waning Crescent, 30% of the Moon is Illuminated
Today
Waning Crescent
Sep 24
New
Oct 1
First Quarter
Oct 8
Full
Oct 15
Last Quarter

Today's Extremes

State Highs State Lows

Community

WunderPhotos

Upload Photos

1,754,292 photos uploaded!

Nearby

Snow Depth

Station Depth Elevation
No new snow has been reported.

Earthquake Activity

City Distance Mag. Time & Date
No recent earthquake activity has been reported nearby.
Minimum magnitude displayed is 2.5.

Coastal Water Temperatures

Place Temperature
No Stations Reporting

Nearby Weather Stations